Main page
METAR-TAF:

METAR-TAF

Airports :

Skiathos International Airport

Skiathos, Greece

latitude: 39-11N, longitude: 023-30E, elevation: 15 m

Current weather observation

The report was made 39 minutes ago, at 09:50 UTC
Wind 10 kt from the North
Temperature 29°C
Humidity 58%
Pressure 1007 hPa
Visibility 10 km or more
Few clouds at a height of 3000 ft

METAR: LGSK 180950Z 36010KT 9999 FEW030 29/20 Q1007

Time: 13:29 (10:29 UTC)

Forecast

The report was made 2 hours and 29 minutes ago, at 08:00 UTC
Forecast valid from 18 at 09 UTC to 18 at 18 UTC
Wind 14 kt from the North/Northwest
Visibility 10 km or more
Temporary
from 18 at 09 UTC to 18 at 12 UTC
Wind 14 kt from the North/Northwest with gusts up to 24 kt

TAF: LGSK 180800Z 1809/1818 33014KT 9999 TEMPO 1809/1812 33014G24KT

Weather observations and forecasts of more than 4000 airports (METAR and TAF reports).

The available stations are represented by yellow and red dots on the map.

Hover mouse over dot to see the name of the station.

Then click to see weather observations and forecasts.

To change the map : click on the green buttons with a black cross to zoom in, on the green button with a dash to zoom out, or on the green arrows for adjacent maps.


METAR-TAF: